メインページ
METAR-TAF:

METAR-TAF

空港 :

福岡空港

福岡, 日本

緯度: 33-35N, 経度: 130-27E, 海抜: 9m

現時点の気象観測

当レポートは44分前の08:00(UTC)に作成
変向風 3kt
気温 32°C
湿度 46%
気圧 1005 hPa
視程10km以上
高度4000ftの雲はほとんどない
高度7000ftの千切れ雲あり

METAR: RJFF 200800Z VRB03KT 9999 FEW040 BKN070 32/19 Q1005 BECMG TL0830 10008KT

時間: 17:44 (08:44 UTC)

予報

当レポートは3時間39分前の05:05(UTC)に作成
予報は20日の 06時(UTC)から 21日の 12時(UTC)まで有効
北/北西の風 10kt
視程10km以上
高度3000ftの雲はほとんどない
20日の 06時(UTC)から 20日の 08時(UTC)まで徐々に
東/南東の風 6kt

TAF: RJFF 200505Z 2006/2112 33010KT 9999 FEW030 BECMG 2006/2008 12006KT

4,000以上の空港の気象観測と天気予報(METAR報とTAF報)

利用可能な観測所は地図上に黄色い丸と赤い丸で示す。

丸の上にカーソルを重ねると観測所名を参照できる。

次にクリックすると気象観測と天気予報を参照できる。

マップの切り替え:黒色「×」印の緑ボタンをクリックして拡大、「-」印の緑ボタンをクリックして縮小、緑色の三角印をクリックして隣りの地図に切り替え


METAR-TAF: